sensor_id;sensor_type;location;lat;lon;timestamp;P1;durP1;ratioP1;P2;durP2;ratioP2
47429;SDS011;33181;49.246;7.372;2024-02-16T00:00:57;12.90;;;8.23;;
47429;SDS011;33181;49.246;7.372;2024-02-16T00:03:24;13.30;;;8.60;;
47429;SDS011;33181;49.246;7.372;2024-02-16T00:05:51;12.13;;;8.33;;
47429;SDS011;33181;49.246;7.372;2024-02-16T00:08:18;14.10;;;8.37;;
47429;SDS011;33181;49.246;7.372;2024-02-16T00:10:45;12.70;;;8.67;;
47429;SDS011;33181;49.246;7.372;2024-02-16T00:13:14;14.50;;;9.00;;
47429;SDS011;33181;49.246;7.372;2024-02-16T00:15:40;13.00;;;9.67;;
47429;SDS011;33181;49.246;7.372;2024-02-16T00:18:06;12.60;;;8.77;;
47429;SDS011;33181;49.246;7.372;2024-02-16T00:20:32;14.33;;;9.23;;
47429;SDS011;33181;49.246;7.372;2024-02-16T00:22:58;16.30;;;8.77;;
47429;SDS011;33181;49.246;7.372;2024-02-16T00:25:25;12.80;;;8.50;;
47429;SDS011;33181;49.246;7.372;2024-02-16T00:27:51;16.30;;;9.07;;
47429;SDS011;33181;49.246;7.372;2024-02-16T00:30:18;11.27;;;7.90;;
47429;SDS011;33181;49.246;7.372;2024-02-16T00:32:44;10.83;;;8.10;;
47429;SDS011;33181;49.246;7.372;2024-02-16T00:35:10;12.07;;;8.53;;
47429;SDS011;33181;49.246;7.372;2024-02-16T00:37:37;15.33;;;9.30;;
47429;SDS011;33181;49.246;7.372;2024-02-16T00:40:03;15.90;;;8.50;;
47429;SDS011;33181;49.246;7.372;2024-02-16T00:42:31;14.10;;;8.10;;
47429;SDS011;33181;49.246;7.372;2024-02-16T00:44:57;16.53;;;8.67;;
47429;SDS011;33181;49.246;7.372;2024-02-16T00:47:25;13.00;;;8.90;;
47429;SDS011;33181;49.246;7.372;2024-02-16T00:49:52;13.00;;;9.10;;
47429;SDS011;33181;49.246;7.372;2024-02-16T00:52:18;14.23;;;8.17;;
47429;SDS011;33181;49.246;7.372;2024-02-16T00:54:44;11.20;;;7.90;;
47429;SDS011;33181;49.246;7.372;2024-02-16T00:57:11;10.73;;;8.20;;
47429;SDS011;33181;49.246;7.372;2024-02-16T00:59:39;11.87;;;8.40;;
47429;SDS011;33181;49.246;7.372;2024-02-16T01:02:06;14.20;;;9.03;;
47429;SDS011;33181;49.246;7.372;2024-02-16T01:04:32;13.77;;;9.60;;
47429;SDS011;33181;49.246;7.372;2024-02-16T01:06:58;11.97;;;8.30;;
47429;SDS011;33181;49.246;7.372;2024-02-16T01:09:24;13.23;;;8.53;;
47429;SDS011;33181;49.246;7.372;2024-02-16T01:11:50;13.37;;;8.50;;
47429;SDS011;33181;49.246;7.372;2024-02-16T01:14:16;10.33;;;7.60;;
47429;SDS011;33181;49.246;7.372;2024-02-16T01:16:42;10.10;;;8.20;;
47429;SDS011;33181;49.246;7.372;2024-02-16T01:19:08;12.80;;;8.00;;
47429;SDS011;33181;49.246;7.372;2024-02-16T01:21:34;14.23;;;8.10;;
47429;SDS011;33181;49.246;7.372;2024-02-16T01:24:00;9.80;;;7.10;;
47429;SDS011;33181;49.246;7.372;2024-02-16T01:26:26;11.00;;;7.90;;
47429;SDS011;33181;49.246;7.372;2024-02-16T01:28:53;11.13;;;7.50;;
47429;SDS011;33181;49.246;7.372;2024-02-16T01:31:19;17.53;;;7.97;;
47429;SDS011;33181;49.246;7.372;2024-02-16T01:33:44;11.80;;;7.80;;
47429;SDS011;33181;49.246;7.372;2024-02-16T01:36:10;13.13;;;8.13;;
47429;SDS011;33181;49.246;7.372;2024-02-16T01:38:36;11.67;;;7.97;;
47429;SDS011;33181;49.246;7.372;2024-02-16T01:41:02;12.00;;;8.20;;
47429;SDS011;33181;49.246;7.372;2024-02-16T01:43:28;12.20;;;8.30;;
47429;SDS011;33181;49.246;7.372;2024-02-16T01:45:54;13.00;;;7.83;;
47429;SDS011;33181;49.246;7.372;2024-02-16T01:48:21;14.37;;;8.87;;
47429;SDS011;33181;49.246;7.372;2024-02-16T01:50:46;8.60;;;6.93;;
47429;SDS011;33181;49.246;7.372;2024-02-16T01:53:14;13.57;;;7.93;;
47429;SDS011;33181;49.246;7.372;2024-02-16T01:55:45;10.90;;;7.97;;
47429;SDS011;33181;49.246;7.372;2024-02-16T01:58:12;12.37;;;7.20;;
47429;SDS011;33181;49.246;7.372;2024-02-16T02:00:38;11.40;;;8.10;;
47429;SDS011;33181;49.246;7.372;2024-02-16T02:03:06;10.83;;;7.60;;
47429;SDS011;33181;49.246;7.372;2024-02-16T02:05:34;10.70;;;7.50;;
47429;SDS011;33181;49.246;7.372;2024-02-16T02:08:08;12.87;;;7.90;;
47429;SDS011;33181;49.246;7.372;2024-02-16T02:10:35;9.97;;;7.53;;
47429;SDS011;33181;49.246;7.372;2024-02-16T02:13:01;10.00;;;8.07;;
47429;SDS011;33181;49.246;7.372;2024-02-16T02:15:27;11.80;;;8.17;;
47429;SDS011;33181;49.246;7.372;2024-02-16T02:17:53;13.07;;;7.73;;
47429;SDS011;33181;49.246;7.372;2024-02-16T02:20:19;10.50;;;7.40;;
47429;SDS011;33181;49.246;7.372;2024-02-16T02:22:45;12.87;;;8.10;;
47429;SDS011;33181;49.246;7.372;2024-02-16T02:25:10;10.67;;;7.80;;
47429;SDS011;33181;49.246;7.372;2024-02-16T02:27:36;13.10;;;8.27;;
47429;SDS011;33181;49.246;7.372;2024-02-16T02:30:03;10.97;;;7.70;;
47429;SDS011;33181;49.246;7.372;2024-02-16T02:32:33;12.47;;;8.50;;
47429;SDS011;33181;49.246;7.372;2024-02-16T02:34:58;13.50;;;8.13;;
47429;SDS011;33181;49.246;7.372;2024-02-16T02:37:24;11.90;;;7.67;;
47429;SDS011;33181;49.246;7.372;2024-02-16T02:39:50;10.90;;;7.60;;
47429;SDS011;33181;49.246;7.372;2024-02-16T02:42:16;13.70;;;9.00;;
47429;SDS011;33181;49.246;7.372;2024-02-16T02:44:41;10.87;;;7.77;;
47429;SDS011;33181;49.246;7.372;2024-02-16T02:47:14;15.20;;;8.30;;
47429;SDS011;33181;49.246;7.372;2024-02-16T02:49:40;16.70;;;8.90;;
47429;SDS011;33181;49.246;7.372;2024-02-16T02:52:05;11.77;;;8.43;;
47429;SDS011;33181;49.246;7.372;2024-02-16T02:54:31;15.00;;;8.50;;
47429;SDS011;33181;49.246;7.372;2024-02-16T02:56:57;13.10;;;8.73;;
47429;SDS011;33181;49.246;7.372;2024-02-16T02:59:23;15.13;;;8.37;;
47429;SDS011;33181;49.246;7.372;2024-02-16T03:01:49;14.30;;;8.00;;
47429;SDS011;33181;49.246;7.372;2024-02-16T03:04:14;12.40;;;7.80;;
47429;SDS011;33181;49.246;7.372;2024-02-16T03:06:40;13.27;;;8.13;;
47429;SDS011;33181;49.246;7.372;2024-02-16T03:09:06;17.13;;;8.83;;
47429;SDS011;33181;49.246;7.372;2024-02-16T03:11:32;10.97;;;7.87;;
47429;SDS011;33181;49.246;7.372;2024-02-16T03:13:58;10.67;;;7.80;;
47429;SDS011;33181;49.246;7.372;2024-02-16T03:16:23;11.70;;;7.60;;
47429;SDS011;33181;49.246;7.372;2024-02-16T03:18:49;12.90;;;8.27;;
47429;SDS011;33181;49.246;7.372;2024-02-16T03:21:15;13.67;;;8.00;;
47429;SDS011;33181;49.246;7.372;2024-02-16T03:23:43;11.47;;;6.90;;
47429;SDS011;33181;49.246;7.372;2024-02-16T03:26:15;9.80;;;7.70;;
47429;SDS011;33181;49.246;7.372;2024-02-16T03:28:47;10.60;;;7.30;;
47429;SDS011;33181;49.246;7.372;2024-02-16T03:31:16;16.20;;;7.43;;
47429;SDS011;33181;49.246;7.372;2024-02-16T03:33:50;16.20;;;7.80;;
47429;SDS011;33181;49.246;7.372;2024-02-16T03:36:17;9.83;;;7.50;;
47429;SDS011;33181;49.246;7.372;2024-02-16T03:38:48;10.90;;;7.40;;
47429;SDS011;33181;49.246;7.372;2024-02-16T03:41:17;11.57;;;7.00;;
47429;SDS011;33181;49.246;7.372;2024-02-16T03:43:46;11.73;;;7.70;;
47429;SDS011;33181;49.246;7.372;2024-02-16T03:46:11;11.50;;;7.23;;
47429;SDS011;33181;49.246;7.372;2024-02-16T03:48:38;12.43;;;7.73;;
47429;SDS011;33181;49.246;7.372;2024-02-16T03:51:07;11.07;;;6.97;;
47429;SDS011;33181;49.246;7.372;2024-02-16T03:53:33;11.80;;;7.10;;
47429;SDS011;33181;49.246;7.372;2024-02-16T03:55:59;11.47;;;7.70;;
47429;SDS011;33181;49.246;7.372;2024-02-16T03:58:25;10.47;;;6.80;;
47429;SDS011;33181;49.246;7.372;2024-02-16T04:00:51;10.70;;;6.90;;
47429;SDS011;33181;49.246;7.372;2024-02-16T04:03:20;11.20;;;6.87;;
47429;SDS011;33181;49.246;7.372;2024-02-16T04:05:46;13.63;;;7.57;;
47429;SDS011;33181;49.246;7.372;2024-02-16T04:08:11;14.40;;;7.00;;
47429;SDS011;33181;49.246;7.372;2024-02-16T04:10:37;8.63;;;6.07;;
47429;SDS011;33181;49.246;7.372;2024-02-16T04:13:03;8.70;;;5.80;;
47429;SDS011;33181;49.246;7.372;2024-02-16T04:15:29;10.33;;;6.67;;
47429;SDS011;33181;49.246;7.372;2024-02-16T04:17:55;9.83;;;6.17;;
47429;SDS011;33181;49.246;7.372;2024-02-16T04:20:20;9.50;;;6.23;;
47429;SDS011;33181;49.246;7.372;2024-02-16T04:22:47;7.93;;;5.77;;
47429;SDS011;33181;49.246;7.372;2024-02-16T04:25:12;9.77;;;6.17;;
47429;SDS011;33181;49.246;7.372;2024-02-16T04:27:38;9.90;;;6.07;;
47429;SDS011;33181;49.246;7.372;2024-02-16T04:30:06;7.63;;;5.70;;
47429;SDS011;33181;49.246;7.372;2024-02-16T04:32:33;10.00;;;5.73;;
47429;SDS011;33181;49.246;7.372;2024-02-16T04:34:58;11.17;;;6.80;;
47429;SDS011;33181;49.246;7.372;2024-02-16T04:37:27;12.00;;;6.80;;
47429;SDS011;33181;49.246;7.372;2024-02-16T04:39:53;10.20;;;5.87;;
47429;SDS011;33181;49.246;7.372;2024-02-16T04:42:19;8.87;;;6.10;;
47429;SDS011;33181;49.246;7.372;2024-02-16T04:44:44;8.70;;;6.10;;
47429;SDS011;33181;49.246;7.372;2024-02-16T04:47:10;9.10;;;6.10;;
47429;SDS011;33181;49.246;7.372;2024-02-16T04:49:38;13.43;;;6.83;;
47429;SDS011;33181;49.246;7.372;2024-02-16T04:52:04;13.67;;;7.33;;
47429;SDS011;33181;49.246;7.372;2024-02-16T04:54:30;11.03;;;6.80;;
47429;SDS011;33181;49.246;7.372;2024-02-16T04:56:56;13.80;;;6.57;;
47429;SDS011;33181;49.246;7.372;2024-02-16T04:59:21;12.40;;;6.97;;
47429;SDS011;33181;49.246;7.372;2024-02-16T05:01:47;9.67;;;6.60;;
47429;SDS011;33181;49.246;7.372;2024-02-16T05:04:13;9.73;;;6.60;;
47429;SDS011;33181;49.246;7.372;2024-02-16T05:06:42;10.43;;;6.10;;
47429;SDS011;33181;49.246;7.372;2024-02-16T05:09:10;8.00;;;5.90;;
47429;SDS011;33181;49.246;7.372;2024-02-16T05:11:36;9.27;;;6.23;;
47429;SDS011;33181;49.246;7.372;2024-02-16T05:14:02;9.00;;;6.67;;
47429;SDS011;33181;49.246;7.372;2024-02-16T05:16:28;14.03;;;7.07;;
47429;SDS011;33181;49.246;7.372;2024-02-16T05:18:58;8.77;;;6.67;;
47429;SDS011;33181;49.246;7.372;2024-02-16T05:21:23;12.60;;;7.40;;
47429;SDS011;33181;49.246;7.372;2024-02-16T05:23:49;12.80;;;8.00;;
47429;SDS011;33181;49.246;7.372;2024-02-16T05:26:15;11.50;;;7.13;;
47429;SDS011;33181;49.246;7.372;2024-02-16T05:28:41;10.33;;;7.10;;
47429;SDS011;33181;49.246;7.372;2024-02-16T05:31:17;9.97;;;6.80;;
47429;SDS011;33181;49.246;7.372;2024-02-16T05:33:44;9.90;;;6.90;;
47429;SDS011;33181;49.246;7.372;2024-02-16T05:36:15;13.67;;;7.40;;
47429;SDS011;33181;49.246;7.372;2024-02-16T05:38:45;10.80;;;6.83;;
47429;SDS011;33181;49.246;7.372;2024-02-16T05:41:11;10.93;;;7.30;;
47429;SDS011;33181;49.246;7.372;2024-02-16T05:43:37;7.60;;;6.00;;
47429;SDS011;33181;49.246;7.372;2024-02-16T05:46:04;13.47;;;6.80;;
47429;SDS011;33181;49.246;7.372;2024-02-16T05:48:33;9.93;;;7.10;;
47429;SDS011;33181;49.246;7.372;2024-02-16T05:51:02;9.60;;;6.87;;
47429;SDS011;33181;49.246;7.372;2024-02-16T05:53:30;11.00;;;7.50;;
47429;SDS011;33181;49.246;7.372;2024-02-16T05:55:56;13.17;;;6.70;;
47429;SDS011;33181;49.246;7.372;2024-02-16T05:58:23;11.60;;;7.10;;
47429;SDS011;33181;49.246;7.372;2024-02-16T06:00:49;10.60;;;6.60;;
47429;SDS011;33181;49.246;7.372;2024-02-16T06:03:15;11.03;;;7.10;;
47429;SDS011;33181;49.246;7.372;2024-02-16T06:05:41;8.77;;;6.57;;
47429;SDS011;33181;49.246;7.372;2024-02-16T06:08:09;11.90;;;7.23;;
47429;SDS011;33181;49.246;7.372;2024-02-16T06:10:35;10.67;;;7.00;;
47429;SDS011;33181;49.246;7.372;2024-02-16T06:13:01;11.73;;;7.37;;
47429;SDS011;33181;49.246;7.372;2024-02-16T06:15:27;12.23;;;7.20;;
47429;SDS011;33181;49.246;7.372;2024-02-16T06:17:53;13.60;;;7.40;;
47429;SDS011;33181;49.246;7.372;2024-02-16T06:20:19;14.83;;;6.50;;
47429;SDS011;33181;49.246;7.372;2024-02-16T06:22:45;11.13;;;6.80;;
47429;SDS011;33181;49.246;7.372;2024-02-16T06:25:10;8.80;;;6.80;;
47429;SDS011;33181;49.246;7.372;2024-02-16T06:27:36;10.10;;;6.93;;
47429;SDS011;33181;49.246;7.372;2024-02-16T06:30:02;10.13;;;7.13;;
47429;SDS011;33181;49.246;7.372;2024-02-16T06:32:32;11.93;;;7.37;;
47429;SDS011;33181;49.246;7.372;2024-02-16T06:34:58;11.70;;;7.27;;
47429;SDS011;33181;49.246;7.372;2024-02-16T06:37:24;14.70;;;7.83;;
47429;SDS011;33181;49.246;7.372;2024-02-16T06:39:50;11.37;;;8.50;;
47429;SDS011;33181;49.246;7.372;2024-02-16T06:42:15;11.57;;;7.50;;
47429;SDS011;33181;49.246;7.372;2024-02-16T06:44:41;11.00;;;7.87;;
47429;SDS011;33181;49.246;7.372;2024-02-16T06:47:07;19.60;;;12.50;;
47429;SDS011;33181;49.246;7.372;2024-02-16T06:49:33;24.50;;;14.30;;
47429;SDS011;33181;49.246;7.372;2024-02-16T06:51:58;31.07;;;18.57;;
47429;SDS011;33181;49.246;7.372;2024-02-16T06:54:24;27.77;;;17.30;;
47429;SDS011;33181;49.246;7.372;2024-02-16T06:56:50;27.40;;;15.90;;
47429;SDS011;33181;49.246;7.372;2024-02-16T06:59:16;20.43;;;13.43;;
47429;SDS011;33181;49.246;7.372;2024-02-16T07:01:43;19.93;;;13.17;;
47429;SDS011;33181;49.246;7.372;2024-02-16T07:04:08;18.27;;;12.20;;
47429;SDS011;33181;49.246;7.372;2024-02-16T07:06:34;18.37;;;12.37;;
47429;SDS011;33181;49.246;7.372;2024-02-16T07:09:01;17.20;;;11.87;;
47429;SDS011;33181;49.246;7.372;2024-02-16T07:11:27;16.97;;;10.33;;
47429;SDS011;33181;49.246;7.372;2024-02-16T07:13:53;18.93;;;10.10;;
47429;SDS011;33181;49.246;7.372;2024-02-16T07:16:19;15.50;;;10.20;;
47429;SDS011;33181;49.246;7.372;2024-02-16T07:18:45;20.13;;;11.20;;
47429;SDS011;33181;49.246;7.372;2024-02-16T07:21:11;13.97;;;9.10;;
47429;SDS011;33181;49.246;7.372;2024-02-16T07:23:37;18.83;;;10.37;;
47429;SDS011;33181;49.246;7.372;2024-02-16T07:26:03;16.70;;;10.43;;
47429;SDS011;33181;49.246;7.372;2024-02-16T07:28:29;15.63;;;9.77;;
47429;SDS011;33181;49.246;7.372;2024-02-16T07:30:56;15.30;;;9.70;;
47429;SDS011;33181;49.246;7.372;2024-02-16T07:33:22;13.50;;;9.13;;
47429;SDS011;33181;49.246;7.372;2024-02-16T07:35:49;14.93;;;9.33;;
47429;SDS011;33181;49.246;7.372;2024-02-16T07:38:16;12.13;;;7.50;;
47429;SDS011;33181;49.246;7.372;2024-02-16T07:40:42;15.50;;;8.97;;
47429;SDS011;33181;49.246;7.372;2024-02-16T07:43:10;14.53;;;8.50;;
47429;SDS011;33181;49.246;7.372;2024-02-16T07:45:36;10.57;;;7.60;;
47429;SDS011;33181;49.246;7.372;2024-02-16T07:48:02;11.77;;;8.10;;
47429;SDS011;33181;49.246;7.372;2024-02-16T07:50:30;11.37;;;7.63;;
47429;SDS011;33181;49.246;7.372;2024-02-16T07:52:56;10.93;;;7.30;;
47429;SDS011;33181;49.246;7.372;2024-02-16T07:55:21;10.43;;;6.37;;
47429;SDS011;33181;49.246;7.372;2024-02-16T07:57:49;10.33;;;7.33;;
47429;SDS011;33181;49.246;7.372;2024-02-16T08:00:17;11.90;;;7.20;;
47429;SDS011;33181;49.246;7.372;2024-02-16T08:02:44;5.87;;;4.50;;
47429;SDS011;33181;49.246;7.372;2024-02-16T08:05:13;10.00;;;5.00;;
47429;SDS011;33181;49.246;7.372;2024-02-16T08:07:40;6.43;;;4.37;;
47429;SDS011;33181;49.246;7.372;2024-02-16T08:10:09;7.17;;;4.60;;
47429;SDS011;33181;49.246;7.372;2024-02-16T08:12:35;7.80;;;4.97;;
47429;SDS011;33181;49.246;7.372;2024-02-16T08:15:02;6.60;;;4.40;;
47429;SDS011;33181;49.246;7.372;2024-02-16T08:17:31;5.60;;;4.13;;
47429;SDS011;33181;49.246;7.372;2024-02-16T08:20:01;8.70;;;4.60;;
47429;SDS011;33181;49.246;7.372;2024-02-16T08:22:27;9.27;;;5.53;;
47429;SDS011;33181;49.246;7.372;2024-02-16T08:24:53;6.57;;;4.10;;
47429;SDS011;33181;49.246;7.372;2024-02-16T08:27:18;5.50;;;4.07;;
47429;SDS011;33181;49.246;7.372;2024-02-16T08:29:44;7.07;;;4.13;;
47429;SDS011;33181;49.246;7.372;2024-02-16T08:32:10;8.73;;;3.67;;
47429;SDS011;33181;49.246;7.372;2024-02-16T08:34:36;5.60;;;3.47;;
47429;SDS011;33181;49.246;7.372;2024-02-16T08:37:03;5.57;;;3.63;;
47429;SDS011;33181;49.246;7.372;2024-02-16T08:39:30;7.23;;;4.43;;
47429;SDS011;33181;49.246;7.372;2024-02-16T08:41:59;6.40;;;3.50;;
47429;SDS011;33181;49.246;7.372;2024-02-16T08:44:25;7.17;;;4.00;;
47429;SDS011;33181;49.246;7.372;2024-02-16T08:46:51;4.90;;;3.67;;
47429;SDS011;33181;49.246;7.372;2024-02-16T08:49:19;9.10;;;4.33;;
47429;SDS011;33181;49.246;7.372;2024-02-16T08:51:45;6.30;;;3.83;;
47429;SDS011;33181;49.246;7.372;2024-02-16T08:54:12;6.50;;;4.23;;
47429;SDS011;33181;49.246;7.372;2024-02-16T08:56:38;7.03;;;4.13;;
47429;SDS011;33181;49.246;7.372;2024-02-16T08:59:04;11.17;;;4.03;;
47429;SDS011;33181;49.246;7.372;2024-02-16T09:01:34;6.73;;;4.27;;
47429;SDS011;33181;49.246;7.372;2024-02-16T09:04:02;9.90;;;3.93;;
47429;SDS011;33181;49.246;7.372;2024-02-16T09:06:28;7.40;;;4.23;;
47429;SDS011;33181;49.246;7.372;2024-02-16T09:08:55;6.90;;;3.97;;
47429;SDS011;33181;49.246;7.372;2024-02-16T09:11:21;8.33;;;4.43;;
47429;SDS011;33181;49.246;7.372;2024-02-16T09:13:48;7.23;;;3.83;;
47429;SDS011;33181;49.246;7.372;2024-02-16T09:16:15;9.63;;;4.07;;
47429;SDS011;33181;49.246;7.372;2024-02-16T09:18:40;7.60;;;3.97;;
47429;SDS011;33181;49.246;7.372;2024-02-16T09:21:06;6.27;;;3.80;;
47429;SDS011;33181;49.246;7.372;2024-02-16T09:23:33;6.17;;;3.97;;
47429;SDS011;33181;49.246;7.372;2024-02-16T09:26:00;6.73;;;3.60;;
47429;SDS011;33181;49.246;7.372;2024-02-16T09:28:29;8.87;;;3.60;;
47429;SDS011;33181;49.246;7.372;2024-02-16T09:30:55;5.87;;;3.93;;
47429;SDS011;33181;49.246;7.372;2024-02-16T09:33:22;7.63;;;3.67;;
47429;SDS011;33181;49.246;7.372;2024-02-16T09:35:49;5.97;;;3.83;;
47429;SDS011;33181;49.246;7.372;2024-02-16T09:38:15;7.93;;;4.10;;
47429;SDS011;33181;49.246;7.372;2024-02-16T09:40:42;7.23;;;4.20;;
47429;SDS011;33181;49.246;7.372;2024-02-16T09:43:09;9.00;;;3.90;;
47429;SDS011;33181;49.246;7.372;2024-02-16T09:45:35;6.97;;;4.20;;
47429;SDS011;33181;49.246;7.372;2024-02-16T09:48:01;6.03;;;3.80;;
47429;SDS011;33181;49.246;7.372;2024-02-16T09:50:32;6.03;;;3.63;;
47429;SDS011;33181;49.246;7.372;2024-02-16T09:52:59;7.67;;;4.33;;
47429;SDS011;33181;49.246;7.372;2024-02-16T09:55:29;6.50;;;3.63;;
47429;SDS011;33181;49.246;7.372;2024-02-16T09:58:01;8.03;;;3.80;;
47429;SDS011;33181;49.246;7.372;2024-02-16T10:00:30;6.50;;;3.90;;
47429;SDS011;33181;49.246;7.372;2024-02-16T10:02:55;6.30;;;3.97;;
47429;SDS011;33181;49.246;7.372;2024-02-16T10:05:21;6.80;;;3.97;;
47429;SDS011;33181;49.246;7.372;2024-02-16T10:07:48;7.13;;;4.30;;
47429;SDS011;33181;49.246;7.372;2024-02-16T10:10:24;5.67;;;3.67;;
47429;SDS011;33181;49.246;7.372;2024-02-16T10:13:05;6.07;;;4.40;;
47429;SDS011;33181;49.246;7.372;2024-02-16T10:15:33;9.87;;;4.00;;
47429;SDS011;33181;49.246;7.372;2024-02-16T10:18:00;5.73;;;3.70;;
47429;SDS011;33181;49.246;7.372;2024-02-16T10:20:28;9.33;;;3.47;;
47429;SDS011;33181;49.246;7.372;2024-02-16T10:25:34;5.80;;;3.63;;
47429;SDS011;33181;49.246;7.372;2024-02-16T10:28:10;5.90;;;4.00;;
47429;SDS011;33181;49.246;7.372;2024-02-16T10:30:39;9.37;;;3.97;;
47429;SDS011;33181;49.246;7.372;2024-02-16T10:33:07;8.80;;;4.60;;
47429;SDS011;33181;49.246;7.372;2024-02-16T10:35:37;8.90;;;4.23;;
47429;SDS011;33181;49.246;7.372;2024-02-16T10:38:05;11.00;;;4.03;;
47429;SDS011;33181;49.246;7.372;2024-02-16T10:40:41;5.80;;;3.70;;
47429;SDS011;33181;49.246;7.372;2024-02-16T10:43:08;6.37;;;3.90;;
47429;SDS011;33181;49.246;7.372;2024-02-16T10:45:35;7.13;;;3.50;;
47429;SDS011;33181;49.246;7.372;2024-02-16T10:48:03;6.07;;;3.97;;
47429;SDS011;33181;49.246;7.372;2024-02-16T10:50:31;5.50;;;3.53;;
47429;SDS011;33181;49.246;7.372;2024-02-16T10:53:00;9.30;;;4.23;;
47429;SDS011;33181;49.246;7.372;2024-02-16T10:55:44;5.40;;;3.63;;
47429;SDS011;33181;49.246;7.372;2024-02-16T10:58:10;6.60;;;4.10;;
47429;SDS011;33181;49.246;7.372;2024-02-16T11:00:47;6.93;;;3.80;;
47429;SDS011;33181;49.246;7.372;2024-02-16T11:03:26;6.57;;;3.67;;
47429;SDS011;33181;49.246;7.372;2024-02-16T11:05:53;10.03;;;3.83;;
47429;SDS011;33181;49.246;7.372;2024-02-16T11:08:20;5.53;;;3.77;;
47429;SDS011;33181;49.246;7.372;2024-02-16T11:10:56;7.17;;;3.70;;
47429;SDS011;33181;49.246;7.372;2024-02-16T11:13:23;6.03;;;3.60;;
47429;SDS011;33181;49.246;7.372;2024-02-16T11:16:09;7.87;;;4.63;;
47429;SDS011;33181;49.246;7.372;2024-02-16T11:18:39;8.57;;;3.97;;
47429;SDS011;33181;49.246;7.372;2024-02-16T11:21:14;6.10;;;3.53;;
47429;SDS011;33181;49.246;7.372;2024-02-16T11:23:44;7.17;;;4.00;;
47429;SDS011;33181;49.246;7.372;2024-02-16T11:26:10;7.57;;;4.30;;
47429;SDS011;33181;49.246;7.372;2024-02-16T11:28:38;10.40;;;4.03;;
47429;SDS011;33181;49.246;7.372;2024-02-16T11:31:08;6.90;;;3.73;;
47429;SDS011;33181;49.246;7.372;2024-02-16T11:33:34;5.87;;;3.80;;
47429;SDS011;33181;49.246;7.372;2024-02-16T11:36:01;8.17;;;4.67;;
47429;SDS011;33181;49.246;7.372;2024-02-16T11:38:33;7.17;;;3.80;;
47429;SDS011;33181;49.246;7.372;2024-02-16T11:41:02;8.23;;;3.93;;
47429;SDS011;33181;49.246;7.372;2024-02-16T11:43:30;6.67;;;4.07;;
47429;SDS011;33181;49.246;7.372;2024-02-16T11:46:10;5.57;;;4.17;;
47429;SDS011;33181;49.246;7.372;2024-02-16T11:48:41;9.80;;;3.97;;
47429;SDS011;33181;49.246;7.372;2024-02-16T11:51:07;7.57;;;3.60;;
47429;SDS011;33181;49.246;7.372;2024-02-16T11:53:33;8.30;;;3.80;;
47429;SDS011;33181;49.246;7.372;2024-02-16T11:55:59;6.30;;;3.80;;
47429;SDS011;33181;49.246;7.372;2024-02-16T11:58:25;7.63;;;3.77;;
47429;SDS011;33181;49.246;7.372;2024-02-16T12:00:52;9.67;;;3.93;;
47429;SDS011;33181;49.246;7.372;2024-02-16T12:03:24;8.80;;;4.20;;
47429;SDS011;33181;49.246;7.372;2024-02-16T12:05:52;5.87;;;3.73;;
47429;SDS011;33181;49.246;7.372;2024-02-16T12:08:23;7.10;;;3.70;;
47429;SDS011;33181;49.246;7.372;2024-02-16T12:10:56;7.53;;;3.90;;
47429;SDS011;33181;49.246;7.372;2024-02-16T12:13:22;9.27;;;3.67;;
47429;SDS011;33181;49.246;7.372;2024-02-16T12:15:50;8.70;;;4.00;;
47429;SDS011;33181;49.246;7.372;2024-02-16T12:18:26;12.17;;;4.13;;
47429;SDS011;33181;49.246;7.372;2024-02-16T12:21:00;6.80;;;4.10;;
47429;SDS011;33181;49.246;7.372;2024-02-16T12:23:28;7.67;;;3.80;;
47429;SDS011;33181;49.246;7.372;2024-02-16T12:25:58;6.60;;;3.90;;
47429;SDS011;33181;49.246;7.372;2024-02-16T12:28:25;6.30;;;3.87;;
47429;SDS011;33181;49.246;7.372;2024-02-16T12:30:53;7.17;;;4.23;;
47429;SDS011;33181;49.246;7.372;2024-02-16T12:33:20;6.20;;;4.30;;
47429;SDS011;33181;49.246;7.372;2024-02-16T12:35:49;7.80;;;3.97;;
47429;SDS011;33181;49.246;7.372;2024-02-16T12:38:15;7.43;;;4.57;;
47429;SDS011;33181;49.246;7.372;2024-02-16T12:40:43;7.80;;;4.23;;
47429;SDS011;33181;49.246;7.372;2024-02-16T12:43:08;6.90;;;4.00;;
47429;SDS011;33181;49.246;7.372;2024-02-16T12:45:36;7.80;;;4.30;;
47429;SDS011;33181;49.246;7.372;2024-02-16T12:48:02;8.37;;;4.27;;
47429;SDS011;33181;49.246;7.372;2024-02-16T12:50:29;6.70;;;4.07;;
47429;SDS011;33181;49.246;7.372;2024-02-16T12:52:56;8.27;;;4.00;;
47429;SDS011;33181;49.246;7.372;2024-02-16T12:55:23;6.33;;;4.30;;
47429;SDS011;33181;49.246;7.372;2024-02-16T12:57:49;8.70;;;4.37;;
47429;SDS011;33181;49.246;7.372;2024-02-16T13:00:16;6.57;;;4.17;;
47429;SDS011;33181;49.246;7.372;2024-02-16T13:02:42;7.73;;;3.80;;
47429;SDS011;33181;49.246;7.372;2024-02-16T13:05:08;8.23;;;4.30;;
47429;SDS011;33181;49.246;7.372;2024-02-16T13:07:35;10.50;;;4.27;;
47429;SDS011;33181;49.246;7.372;2024-02-16T13:10:04;9.00;;;3.80;;
47429;SDS011;33181;49.246;7.372;2024-02-16T13:12:30;7.53;;;4.30;;
47429;SDS011;33181;49.246;7.372;2024-02-16T13:14:57;8.33;;;4.00;;
47429;SDS011;33181;49.246;7.372;2024-02-16T13:17:23;8.37;;;3.90;;
47429;SDS011;33181;49.246;7.372;2024-02-16T13:19:49;6.83;;;3.97;;
47429;SDS011;33181;49.246;7.372;2024-02-16T13:22:14;8.13;;;4.07;;
47429;SDS011;33181;49.246;7.372;2024-02-16T13:24:40;7.93;;;3.70;;
47429;SDS011;33181;49.246;7.372;2024-02-16T13:27:07;5.10;;;3.47;;
47429;SDS011;33181;49.246;7.372;2024-02-16T13:29:32;8.60;;;4.20;;
47429;SDS011;33181;49.246;7.372;2024-02-16T13:31:58;6.67;;;3.90;;
47429;SDS011;33181;49.246;7.372;2024-02-16T13:34:25;7.00;;;4.27;;
47429;SDS011;33181;49.246;7.372;2024-02-16T13:36:52;7.93;;;4.10;;
47429;SDS011;33181;49.246;7.372;2024-02-16T13:39:18;5.50;;;3.90;;
47429;SDS011;33181;49.246;7.372;2024-02-16T13:41:46;7.20;;;4.10;;
47429;SDS011;33181;49.246;7.372;2024-02-16T13:44:15;7.80;;;3.80;;
47429;SDS011;33181;49.246;7.372;2024-02-16T13:46:44;7.73;;;4.13;;
47429;SDS011;33181;49.246;7.372;2024-02-16T13:49:12;10.53;;;4.33;;
47429;SDS011;33181;49.246;7.372;2024-02-16T13:51:39;6.37;;;3.70;;
47429;SDS011;33181;49.246;7.372;2024-02-16T13:54:06;7.80;;;4.70;;
47429;SDS011;33181;49.246;7.372;2024-02-16T13:56:32;6.60;;;3.80;;
47429;SDS011;33181;49.246;7.372;2024-02-16T13:58:58;9.93;;;4.40;;
47429;SDS011;33181;49.246;7.372;2024-02-16T14:01:23;7.30;;;4.33;;
47429;SDS011;33181;49.246;7.372;2024-02-16T14:03:50;7.00;;;3.93;;
47429;SDS011;33181;49.246;7.372;2024-02-16T14:06:16;7.50;;;4.20;;
47429;SDS011;33181;49.246;7.372;2024-02-16T14:08:42;8.70;;;3.73;;
47429;SDS011;33181;49.246;7.372;2024-02-16T14:11:08;6.57;;;3.90;;
47429;SDS011;33181;49.246;7.372;2024-02-16T14:13:36;9.43;;;4.10;;
47429;SDS011;33181;49.246;7.372;2024-02-16T14:16:04;8.20;;;4.40;;
47429;SDS011;33181;49.246;7.372;2024-02-16T14:18:30;8.10;;;3.60;;
47429;SDS011;33181;49.246;7.372;2024-02-16T14:20:56;8.17;;;4.00;;
47429;SDS011;33181;49.246;7.372;2024-02-16T14:23:22;7.80;;;4.00;;
47429;SDS011;33181;49.246;7.372;2024-02-16T14:25:48;9.13;;;4.60;;
47429;SDS011;33181;49.246;7.372;2024-02-16T14:28:13;9.70;;;4.43;;
47429;SDS011;33181;49.246;7.372;2024-02-16T14:30:39;10.87;;;4.50;;
47429;SDS011;33181;49.246;7.372;2024-02-16T14:33:06;9.10;;;3.97;;
47429;SDS011;33181;49.246;7.372;2024-02-16T14:35:32;9.53;;;4.50;;
47429;SDS011;33181;49.246;7.372;2024-02-16T14:38:01;6.27;;;3.77;;
47429;SDS011;33181;49.246;7.372;2024-02-16T14:40:29;11.03;;;5.23;;
47429;SDS011;33181;49.246;7.372;2024-02-16T14:42:56;7.40;;;4.70;;